sensor_id;sensor_type;location;lat;lon;timestamp;P1;P2;P0
64627;PMS5003;59036;50.960;0.314;2022-07-06T00:01:03;14;14;
64627;PMS5003;59036;50.960;0.314;2022-07-06T00:03:30;16;16;
64627;PMS5003;59036;50.960;0.314;2022-07-06T00:05:57;15;15;
64627;PMS5003;59036;50.960;0.314;2022-07-06T00:08:24;15;15;
64627;PMS5003;59036;50.960;0.314;2022-07-06T00:10:51;15;15;
64627;PMS5003;59036;50.960;0.314;2022-07-06T00:13:18;16;15;
64627;PMS5003;59036;50.960;0.314;2022-07-06T00:15:46;13;13;
64627;PMS5003;59036;50.960;0.314;2022-07-06T00:18:13;14;13;
64627;PMS5003;59036;50.960;0.314;2022-07-06T00:20:40;13;13;
64627;PMS5003;59036;50.960;0.314;2022-07-06T00:23:07;12;12;
64627;PMS5003;59036;50.960;0.314;2022-07-06T00:25:34;15;15;
64627;PMS5003;59036;50.960;0.314;2022-07-06T00:28:02;13;13;
64627;PMS5003;59036;50.960;0.314;2022-07-06T00:30:29;14;14;
64627;PMS5003;59036;50.960;0.314;2022-07-06T00:32:56;16;15;
64627;PMS5003;59036;50.960;0.314;2022-07-06T00:35:23;12;12;
64627;PMS5003;59036;50.960;0.314;2022-07-06T00:37:50;10;10;
64627;PMS5003;59036;50.960;0.314;2022-07-06T00:40:18;12;11;
64627;PMS5003;59036;50.960;0.314;2022-07-06T00:42:46;14;14;
64627;PMS5003;59036;50.960;0.314;2022-07-06T00:45:14;12;12;
64627;PMS5003;59036;50.960;0.314;2022-07-06T00:47:43;12;12;
64627;PMS5003;59036;50.960;0.314;2022-07-06T00:50:11;10;9;
64627;PMS5003;59036;50.960;0.314;2022-07-06T00:52:41;10;10;
64627;PMS5003;59036;50.960;0.314;2022-07-06T00:55:11;10;10;
64627;PMS5003;59036;50.960;0.314;2022-07-06T00:57:39;8;8;
64627;PMS5003;59036;50.960;0.314;2022-07-06T01:00:08;9;9;
64627;PMS5003;59036;50.960;0.314;2022-07-06T01:02:37;8;8;
64627;PMS5003;59036;50.960;0.314;2022-07-06T01:05:05;7;7;
64627;PMS5003;59036;50.960;0.314;2022-07-06T01:07:33;9;9;
64627;PMS5003;59036;50.960;0.314;2022-07-06T01:10:02;9;9;
64627;PMS5003;59036;50.960;0.314;2022-07-06T01:12:30;8;7;
64627;PMS5003;59036;50.960;0.314;2022-07-06T01:15:00;7;7;
64627;PMS5003;59036;50.960;0.314;2022-07-06T01:17:29;9;8;
64627;PMS5003;59036;50.960;0.314;2022-07-06T01:19:57;9;9;
64627;PMS5003;59036;50.960;0.314;2022-07-06T01:22:24;7;7;
64627;PMS5003;59036;50.960;0.314;2022-07-06T01:24:51;7;7;
64627;PMS5003;59036;50.960;0.314;2022-07-06T01:27:18;7;6;
64627;PMS5003;59036;50.960;0.314;2022-07-06T01:29:45;7;7;
64627;PMS5003;59036;50.960;0.314;2022-07-06T01:32:12;7;7;
64627;PMS5003;59036;50.960;0.314;2022-07-06T01:34:40;7;7;
64627;PMS5003;59036;50.960;0.314;2022-07-06T01:37:07;5;5;
64627;PMS5003;59036;50.960;0.314;2022-07-06T01:39:39;10;7;
64627;PMS5003;59036;50.960;0.314;2022-07-06T01:42:06;7;7;
64627;PMS5003;59036;50.960;0.314;2022-07-06T01:44:33;7;7;
64627;PMS5003;59036;50.960;0.314;2022-07-06T01:47:01;8;8;
64627;PMS5003;59036;50.960;0.314;2022-07-06T01:49:28;7;7;
64627;PMS5003;59036;50.960;0.314;2022-07-06T01:51:55;6;6;
64627;PMS5003;59036;50.960;0.314;2022-07-06T01:54:22;7;7;
64627;PMS5003;59036;50.960;0.314;2022-07-06T01:57:01;10;10;
64627;PMS5003;59036;50.960;0.314;2022-07-06T01:59:29;7;7;
64627;PMS5003;59036;50.960;0.314;2022-07-06T02:01:56;6;6;
64627;PMS5003;59036;50.960;0.314;2022-07-06T02:04:23;8;8;
64627;PMS5003;59036;50.960;0.314;2022-07-06T02:06:50;7;7;
64627;PMS5003;59036;50.960;0.314;2022-07-06T02:09:17;7;7;
64627;PMS5003;59036;50.960;0.314;2022-07-06T02:11:44;9;8;
64627;PMS5003;59036;50.960;0.314;2022-07-06T02:14:12;7;7;
64627;PMS5003;59036;50.960;0.314;2022-07-06T02:16:39;6;5;
64627;PMS5003;59036;50.960;0.314;2022-07-06T02:19:06;6;6;
64627;PMS5003;59036;50.960;0.314;2022-07-06T02:21:33;6;6;
64627;PMS5003;59036;50.960;0.314;2022-07-06T02:24:00;7;7;
64627;PMS5003;59036;50.960;0.314;2022-07-06T02:26:27;6;6;
64627;PMS5003;59036;50.960;0.314;2022-07-06T02:28:54;8;8;
64627;PMS5003;59036;50.960;0.314;2022-07-06T02:31:21;8;8;
64627;PMS5003;59036;50.960;0.314;2022-07-06T02:33:48;7;7;
64627;PMS5003;59036;50.960;0.314;2022-07-06T02:36:16;7;7;
64627;PMS5003;59036;50.960;0.314;2022-07-06T02:38:43;4;4;
64627;PMS5003;59036;50.960;0.314;2022-07-06T02:41:10;6;6;
64627;PMS5003;59036;50.960;0.314;2022-07-06T02:43:37;7;7;
64627;PMS5003;59036;50.960;0.314;2022-07-06T02:46:04;5;5;
64627;PMS5003;59036;50.960;0.314;2022-07-06T02:48:32;6;6;
64627;PMS5003;59036;50.960;0.314;2022-07-06T02:50:59;7;7;
64627;PMS5003;59036;50.960;0.314;2022-07-06T02:53:26;6;6;
64627;PMS5003;59036;50.960;0.314;2022-07-06T02:55:53;7;7;
64627;PMS5003;59036;50.960;0.314;2022-07-06T02:58:20;6;6;
64627;PMS5003;59036;50.960;0.314;2022-07-06T03:00:47;7;7;
64627;PMS5003;59036;50.960;0.314;2022-07-06T03:03:14;6;6;
64627;PMS5003;59036;50.960;0.314;2022-07-06T03:05:41;6;6;
64627;PMS5003;59036;50.960;0.314;2022-07-06T03:08:08;6;6;
64627;PMS5003;59036;50.960;0.314;2022-07-06T03:10:35;7;7;
64627;PMS5003;59036;50.960;0.314;2022-07-06T03:13:02;6;6;
64627;PMS5003;59036;50.960;0.314;2022-07-06T03:15:29;4;4;
64627;PMS5003;59036;50.960;0.314;2022-07-06T03:17:56;5;5;
64627;PMS5003;59036;50.960;0.314;2022-07-06T03:20:23;5;5;
64627;PMS5003;59036;50.960;0.314;2022-07-06T03:22:50;6;6;
64627;PMS5003;59036;50.960;0.314;2022-07-06T03:25:18;7;7;
64627;PMS5003;59036;50.960;0.314;2022-07-06T03:27:45;7;7;
64627;PMS5003;59036;50.960;0.314;2022-07-06T03:30:12;6;6;
64627;PMS5003;59036;50.960;0.314;2022-07-06T03:32:39;5;5;
64627;PMS5003;59036;50.960;0.314;2022-07-06T03:35:06;5;5;
64627;PMS5003;59036;50.960;0.314;2022-07-06T03:37:34;6;5;
64627;PMS5003;59036;50.960;0.314;2022-07-06T03:40:01;7;7;
64627;PMS5003;59036;50.960;0.314;2022-07-06T03:42:29;4;4;
64627;PMS5003;59036;50.960;0.314;2022-07-06T03:44:56;5;5;
64627;PMS5003;59036;50.960;0.314;2022-07-06T03:47:23;6;5;
64627;PMS5003;59036;50.960;0.314;2022-07-06T03:49:50;4;4;
64627;PMS5003;59036;50.960;0.314;2022-07-06T03:52:17;4;4;
64627;PMS5003;59036;50.960;0.314;2022-07-06T03:54:44;4;4;
64627;PMS5003;59036;50.960;0.314;2022-07-06T03:57:12;5;4;
64627;PMS5003;59036;50.960;0.314;2022-07-06T03:59:39;5;5;
64627;PMS5003;59036;50.960;0.314;2022-07-06T04:02:06;5;5;
64627;PMS5003;59036;50.960;0.314;2022-07-06T04:04:33;4;4;
64627;PMS5003;59036;50.960;0.314;2022-07-06T04:07:01;4;4;
64627;PMS5003;59036;50.960;0.314;2022-07-06T04:09:28;5;5;
64627;PMS5003;59036;50.960;0.314;2022-07-06T04:11:55;4;4;
64627;PMS5003;59036;50.960;0.314;2022-07-06T04:14:22;4;4;
64627;PMS5003;59036;50.960;0.314;2022-07-06T04:16:49;5;5;
64627;PMS5003;59036;50.960;0.314;2022-07-06T04:19:16;5;5;
64627;PMS5003;59036;50.960;0.314;2022-07-06T04:21:43;6;6;
64627;PMS5003;59036;50.960;0.314;2022-07-06T04:24:10;6;6;
64627;PMS5003;59036;50.960;0.314;2022-07-06T04:26:37;5;5;
64627;PMS5003;59036;50.960;0.314;2022-07-06T04:29:05;6;5;
64627;PMS5003;59036;50.960;0.314;2022-07-06T04:31:32;4;4;
64627;PMS5003;59036;50.960;0.314;2022-07-06T04:33:59;6;5;
64627;PMS5003;59036;50.960;0.314;2022-07-06T04:36:26;6;5;
64627;PMS5003;59036;50.960;0.314;2022-07-06T04:38:53;6;5;
64627;PMS5003;59036;50.960;0.314;2022-07-06T04:41:20;5;5;
64627;PMS5003;59036;50.960;0.314;2022-07-06T04:43:47;5;5;
64627;PMS5003;59036;50.960;0.314;2022-07-06T04:46:14;5;4;
64627;PMS5003;59036;50.960;0.314;2022-07-06T04:48:41;6;5;
64627;PMS5003;59036;50.960;0.314;2022-07-06T04:51:08;5;5;
64627;PMS5003;59036;50.960;0.314;2022-07-06T04:53:35;4;4;
64627;PMS5003;59036;50.960;0.314;2022-07-06T04:56:02;4;4;
64627;PMS5003;59036;50.960;0.314;2022-07-06T04:58:30;6;6;
64627;PMS5003;59036;50.960;0.314;2022-07-06T05:00:58;4;4;
64627;PMS5003;59036;50.960;0.314;2022-07-06T05:03:25;5;5;
64627;PMS5003;59036;50.960;0.314;2022-07-06T05:05:52;4;4;
64627;PMS5003;59036;50.960;0.314;2022-07-06T05:08:20;7;6;
64627;PMS5003;59036;50.960;0.314;2022-07-06T05:10:47;5;5;
64627;PMS5003;59036;50.960;0.314;2022-07-06T05:13:14;5;4;
64627;PMS5003;59036;50.960;0.314;2022-07-06T05:15:41;4;4;
64627;PMS5003;59036;50.960;0.314;2022-07-06T05:18:09;4;4;
64627;PMS5003;59036;50.960;0.314;2022-07-06T05:20:35;5;5;
64627;PMS5003;59036;50.960;0.314;2022-07-06T05:23:02;4;4;
64627;PMS5003;59036;50.960;0.314;2022-07-06T05:25:30;3;3;
64627;PMS5003;59036;50.960;0.314;2022-07-06T05:27:57;6;5;
64627;PMS5003;59036;50.960;0.314;2022-07-06T05:30:24;5;4;
64627;PMS5003;59036;50.960;0.314;2022-07-06T05:32:51;4;4;
64627;PMS5003;59036;50.960;0.314;2022-07-06T05:35:18;6;6;
64627;PMS5003;59036;50.960;0.314;2022-07-06T05:37:45;5;5;
64627;PMS5003;59036;50.960;0.314;2022-07-06T05:40:12;5;4;
64627;PMS5003;59036;50.960;0.314;2022-07-06T05:42:39;8;7;
64627;PMS5003;59036;50.960;0.314;2022-07-06T05:45:06;6;6;
64627;PMS5003;59036;50.960;0.314;2022-07-06T05:47:34;4;4;
64627;PMS5003;59036;50.960;0.314;2022-07-06T05:50:01;5;4;
64627;PMS5003;59036;50.960;0.314;2022-07-06T05:52:28;4;4;
64627;PMS5003;59036;50.960;0.314;2022-07-06T05:54:55;5;5;
64627;PMS5003;59036;50.960;0.314;2022-07-06T05:57:22;6;5;
64627;PMS5003;59036;50.960;0.314;2022-07-06T05:59:49;5;4;
64627;PMS5003;59036;50.960;0.314;2022-07-06T06:02:17;4;4;
64627;PMS5003;59036;50.960;0.314;2022-07-06T06:04:43;5;4;
64627;PMS5003;59036;50.960;0.314;2022-07-06T06:07:11;4;4;
64627;PMS5003;59036;50.960;0.314;2022-07-06T06:09:38;4;4;
64627;PMS5003;59036;50.960;0.314;2022-07-06T06:12:05;4;3;
64627;PMS5003;59036;50.960;0.314;2022-07-06T06:14:33;6;6;
64627;PMS5003;59036;50.960;0.314;2022-07-06T06:17:00;4;4;
64627;PMS5003;59036;50.960;0.314;2022-07-06T06:19:27;7;6;
64627;PMS5003;59036;50.960;0.314;2022-07-06T06:21:54;6;6;
64627;PMS5003;59036;50.960;0.314;2022-07-06T06:24:21;6;6;
64627;PMS5003;59036;50.960;0.314;2022-07-06T06:26:48;6;6;
64627;PMS5003;59036;50.960;0.314;2022-07-06T06:29:15;5;5;
64627;PMS5003;59036;50.960;0.314;2022-07-06T06:31:42;6;5;
64627;PMS5003;59036;50.960;0.314;2022-07-06T06:34:09;7;6;
64627;PMS5003;59036;50.960;0.314;2022-07-06T06:36:36;5;5;
64627;PMS5003;59036;50.960;0.314;2022-07-06T06:39:03;4;4;
64627;PMS5003;59036;50.960;0.314;2022-07-06T06:41:31;4;4;
64627;PMS5003;59036;50.960;0.314;2022-07-06T06:43:58;5;4;
64627;PMS5003;59036;50.960;0.314;2022-07-06T06:46:25;4;4;
64627;PMS5003;59036;50.960;0.314;2022-07-06T06:48:52;5;5;
64627;PMS5003;59036;50.960;0.314;2022-07-06T06:51:19;4;4;
64627;PMS5003;59036;50.960;0.314;2022-07-06T06:53:46;3;3;
64627;PMS5003;59036;50.960;0.314;2022-07-06T06:56:14;6;6;
64627;PMS5003;59036;50.960;0.314;2022-07-06T06:58:41;4;4;
64627;PMS5003;59036;50.960;0.314;2022-07-06T07:01:08;4;3;
64627;PMS5003;59036;50.960;0.314;2022-07-06T07:03:36;5;5;
64627;PMS5003;59036;50.960;0.314;2022-07-06T07:06:03;5;4;
64627;PMS5003;59036;50.960;0.314;2022-07-06T07:08:31;6;5;
64627;PMS5003;59036;50.960;0.314;2022-07-06T07:10:58;3;3;
64627;PMS5003;59036;50.960;0.314;2022-07-06T07:13:25;4;4;
64627;PMS5003;59036;50.960;0.314;2022-07-06T07:15:52;4;4;
64627;PMS5003;59036;50.960;0.314;2022-07-06T07:18:19;3;3;
64627;PMS5003;59036;50.960;0.314;2022-07-06T07:20:46;4;4;
64627;PMS5003;59036;50.960;0.314;2022-07-06T07:23:13;6;6;
64627;PMS5003;59036;50.960;0.314;2022-07-06T07:25:41;6;5;
64627;PMS5003;59036;50.960;0.314;2022-07-06T07:28:08;4;4;
64627;PMS5003;59036;50.960;0.314;2022-07-06T07:30:36;6;5;
64627;PMS5003;59036;50.960;0.314;2022-07-06T07:33:03;7;5;
64627;PMS5003;59036;50.960;0.314;2022-07-06T07:35:30;5;4;
64627;PMS5003;59036;50.960;0.314;2022-07-06T07:37:57;5;4;
64627;PMS5003;59036;50.960;0.314;2022-07-06T07:40:24;5;4;
64627;PMS5003;59036;50.960;0.314;2022-07-06T07:42:51;5;5;
64627;PMS5003;59036;50.960;0.314;2022-07-06T07:45:18;5;5;
64627;PMS5003;59036;50.960;0.314;2022-07-06T07:47:45;5;5;
64627;PMS5003;59036;50.960;0.314;2022-07-06T07:50:12;4;4;
64627;PMS5003;59036;50.960;0.314;2022-07-06T07:52:39;4;4;
64627;PMS5003;59036;50.960;0.314;2022-07-06T07:55:06;4;4;
64627;PMS5003;59036;50.960;0.314;2022-07-06T07:57:34;6;6;
64627;PMS5003;59036;50.960;0.314;2022-07-06T08:00:02;5;5;
64627;PMS5003;59036;50.960;0.314;2022-07-06T08:02:30;3;3;
64627;PMS5003;59036;50.960;0.314;2022-07-06T08:04:58;3;3;
64627;PMS5003;59036;50.960;0.314;2022-07-06T08:07:25;3;3;
64627;PMS5003;59036;50.960;0.314;2022-07-06T08:09:52;3;3;
64627;PMS5003;59036;50.960;0.314;2022-07-06T08:12:19;3;3;
64627;PMS5003;59036;50.960;0.314;2022-07-06T08:14:46;4;4;
64627;PMS5003;59036;50.960;0.314;2022-07-06T08:17:14;4;4;
64627;PMS5003;59036;50.960;0.314;2022-07-06T08:19:41;3;3;
64627;PMS5003;59036;50.960;0.314;2022-07-06T08:22:08;2;2;
64627;PMS5003;59036;50.960;0.314;2022-07-06T08:24:36;3;3;
64627;PMS5003;59036;50.960;0.314;2022-07-06T08:27:04;2;2;
64627;PMS5003;59036;50.960;0.314;2022-07-06T08:29:32;3;3;
64627;PMS5003;59036;50.960;0.314;2022-07-06T08:31:59;4;3;
64627;PMS5003;59036;50.960;0.314;2022-07-06T08:34:26;2;2;
64627;PMS5003;59036;50.960;0.314;2022-07-06T08:36:54;3;3;
64627;PMS5003;59036;50.960;0.314;2022-07-06T08:39:21;3;3;
64627;PMS5003;59036;50.960;0.314;2022-07-06T08:41:48;2;2;
64627;PMS5003;59036;50.960;0.314;2022-07-06T08:44:17;2;2;
64627;PMS5003;59036;50.960;0.314;2022-07-06T08:46:45;2;2;
64627;PMS5003;59036;50.960;0.314;2022-07-06T08:49:16;4;4;
64627;PMS5003;59036;50.960;0.314;2022-07-06T08:51:44;4;3;
64627;PMS5003;59036;50.960;0.314;2022-07-06T08:54:12;3;3;
64627;PMS5003;59036;50.960;0.314;2022-07-06T08:56:40;3;3;
64627;PMS5003;59036;50.960;0.314;2022-07-06T08:59:07;3;3;
64627;PMS5003;59036;50.960;0.314;2022-07-06T09:01:35;3;3;
64627;PMS5003;59036;50.960;0.314;2022-07-06T09:04:03;3;3;
64627;PMS5003;59036;50.960;0.314;2022-07-06T09:06:32;3;3;
64627;PMS5003;59036;50.960;0.314;2022-07-06T09:09:01;4;4;
64627;PMS5003;59036;50.960;0.314;2022-07-06T09:11:33;4;4;
64627;PMS5003;59036;50.960;0.314;2022-07-06T09:13:59;3;3;
64627;PMS5003;59036;50.960;0.314;2022-07-06T09:16:27;3;3;
64627;PMS5003;59036;50.960;0.314;2022-07-06T09:18:56;2;2;
64627;PMS5003;59036;50.960;0.314;2022-07-06T09:21:24;4;4;
64627;PMS5003;59036;50.960;0.314;2022-07-06T09:23:53;2;2;
64627;PMS5003;59036;50.960;0.314;2022-07-06T09:26:21;3;3;
64627;PMS5003;59036;50.960;0.314;2022-07-06T09:28:49;5;4;
64627;PMS5003;59036;50.960;0.314;2022-07-06T09:31:17;4;4;
64627;PMS5003;59036;50.960;0.314;2022-07-06T09:34:01;5;4;
64627;PMS5003;59036;50.960;0.314;2022-07-06T09:36:38;3;3;
64627;PMS5003;59036;50.960;0.314;2022-07-06T09:39:22;4;4;
64627;PMS5003;59036;50.960;0.314;2022-07-06T09:41:51;6;6;
64627;PMS5003;59036;50.960;0.314;2022-07-06T09:44:22;6;6;
64627;PMS5003;59036;50.960;0.314;2022-07-06T09:46:50;6;6;
64627;PMS5003;59036;50.960;0.314;2022-07-06T09:49:18;4;4;
64627;PMS5003;59036;50.960;0.314;2022-07-06T09:51:46;5;5;
64627;PMS5003;59036;50.960;0.314;2022-07-06T09:54:15;6;6;
64627;PMS5003;59036;50.960;0.314;2022-07-06T09:56:42;5;5;
64627;PMS5003;59036;50.960;0.314;2022-07-06T09:59:11;6;6;
64627;PMS5003;59036;50.960;0.314;2022-07-06T10:01:40;8;7;
64627;PMS5003;59036;50.960;0.314;2022-07-06T10:04:09;6;6;
64627;PMS5003;59036;50.960;0.314;2022-07-06T10:06:37;6;6;
64627;PMS5003;59036;50.960;0.314;2022-07-06T10:09:05;8;8;
64627;PMS5003;59036;50.960;0.314;2022-07-06T10:11:37;5;5;
64627;PMS5003;59036;50.960;0.314;2022-07-06T10:14:06;6;6;
64627;PMS5003;59036;50.960;0.314;2022-07-06T10:16:35;7;6;
64627;PMS5003;59036;50.960;0.314;2022-07-06T10:19:04;6;6;
64627;PMS5003;59036;50.960;0.314;2022-07-06T10:21:33;5;5;
64627;PMS5003;59036;50.960;0.314;2022-07-06T10:24:02;2;2;
64627;PMS5003;59036;50.960;0.314;2022-07-06T10:26:30;5;5;
64627;PMS5003;59036;50.960;0.314;2022-07-06T10:28:59;3;3;
64627;PMS5003;59036;50.960;0.314;2022-07-06T10:31:27;4;4;
64627;PMS5003;59036;50.960;0.314;2022-07-06T10:33:55;4;4;
64627;PMS5003;59036;50.960;0.314;2022-07-06T10:36:23;4;4;
64627;PMS5003;59036;50.960;0.314;2022-07-06T10:38:52;4;4;
64627;PMS5003;59036;50.960;0.314;2022-07-06T10:41:30;4;4;
64627;PMS5003;59036;50.960;0.314;2022-07-06T10:43:57;4;4;
64627;PMS5003;59036;50.960;0.314;2022-07-06T10:46:41;3;3;
64627;PMS5003;59036;50.960;0.314;2022-07-06T10:49:15;5;4;
64627;PMS5003;59036;50.960;0.314;2022-07-06T10:51:43;4;4;
64627;PMS5003;59036;50.960;0.314;2022-07-06T10:54:10;3;3;
64627;PMS5003;59036;50.960;0.314;2022-07-06T10:56:39;3;3;
64627;PMS5003;59036;50.960;0.314;2022-07-06T10:59:08;5;5;
64627;PMS5003;59036;50.960;0.314;2022-07-06T11:01:37;4;4;
64627;PMS5003;59036;50.960;0.314;2022-07-06T11:04:06;3;3;
64627;PMS5003;59036;50.960;0.314;2022-07-06T11:06:35;6;6;
64627;PMS5003;59036;50.960;0.314;2022-07-06T11:09:03;7;6;
64627;PMS5003;59036;50.960;0.314;2022-07-06T11:11:41;4;4;
64627;PMS5003;59036;50.960;0.314;2022-07-06T11:14:09;4;4;
64627;PMS5003;59036;50.960;0.314;2022-07-06T11:16:37;4;4;
64627;PMS5003;59036;50.960;0.314;2022-07-06T11:19:08;6;6;
64627;PMS5003;59036;50.960;0.314;2022-07-06T11:21:39;6;6;
64627;PMS5003;59036;50.960;0.314;2022-07-06T11:24:11;6;6;
64627;PMS5003;59036;50.960;0.314;2022-07-06T11:26:39;6;6;
64627;PMS5003;59036;50.960;0.314;2022-07-06T11:29:09;5;5;
64627;PMS5003;59036;50.960;0.314;2022-07-06T11:31:38;4;4;
64627;PMS5003;59036;50.960;0.314;2022-07-06T11:34:08;5;5;
64627;PMS5003;59036;50.960;0.314;2022-07-06T11:36:36;4;4;
64627;PMS5003;59036;50.960;0.314;2022-07-06T11:39:05;4;4;
64627;PMS5003;59036;50.960;0.314;2022-07-06T11:41:32;4;4;
64627;PMS5003;59036;50.960;0.314;2022-07-06T11:44:00;4;4;
64627;PMS5003;59036;50.960;0.314;2022-07-06T11:46:28;3;3;
64627;PMS5003;59036;50.960;0.314;2022-07-06T11:48:56;3;2;
64627;PMS5003;59036;50.960;0.314;2022-07-06T11:51:25;3;3;
64627;PMS5003;59036;50.960;0.314;2022-07-06T11:53:55;4;4;
64627;PMS5003;59036;50.960;0.314;2022-07-06T11:56:24;3;3;
64627;PMS5003;59036;50.960;0.314;2022-07-06T11:58:52;1;1;
64627;PMS5003;59036;50.960;0.314;2022-07-06T12:01:21;2;2;
64627;PMS5003;59036;50.960;0.314;2022-07-06T12:03:50;1;1;
64627;PMS5003;59036;50.960;0.314;2022-07-06T12:06:18;2;2;
64627;PMS5003;59036;50.960;0.314;2022-07-06T12:08:48;2;2;
64627;PMS5003;59036;50.960;0.314;2022-07-06T12:11:19;4;4;
64627;PMS5003;59036;50.960;0.314;2022-07-06T12:13:49;3;3;
64627;PMS5003;59036;50.960;0.314;2022-07-06T12:16:17;5;5;
64627;PMS5003;59036;50.960;0.314;2022-07-06T12:18:46;6;5;
64627;PMS5003;59036;50.960;0.314;2022-07-06T12:21:15;4;4;
64627;PMS5003;59036;50.960;0.314;2022-07-06T12:23:44;10;10;
64627;PMS5003;59036;50.960;0.314;2022-07-06T12:26:13;10;9;
64627;PMS5003;59036;50.960;0.314;2022-07-06T12:28:41;11;11;
64627;PMS5003;59036;50.960;0.314;2022-07-06T12:31:10;16;15;
64627;PMS5003;59036;50.960;0.314;2022-07-06T12:33:38;17;16;
64627;PMS5003;59036;50.960;0.314;2022-07-06T12:36:09;17;17;
64627;PMS5003;59036;50.960;0.314;2022-07-06T12:38:45;22;21;
64627;PMS5003;59036;50.960;0.314;2022-07-06T12:41:30;27;26;
64627;PMS5003;59036;50.960;0.314;2022-07-06T12:44:01;25;25;
64627;PMS5003;59036;50.960;0.314;2022-07-06T12:46:31;38;35;
64627;PMS5003;59036;50.960;0.314;2022-07-06T12:49:01;37;35;
64627;PMS5003;59036;50.960;0.314;2022-07-06T12:52:09;44;41;
64627;PMS5003;59036;50.960;0.314;2022-07-06T12:54:40;44;43;
64627;PMS5003;59036;50.960;0.314;2022-07-06T12:57:10;46;45;
64627;PMS5003;59036;50.960;0.314;2022-07-06T12:59:45;47;45;
64627;PMS5003;59036;50.960;0.314;2022-07-06T13:02:21;47;45;
64627;PMS5003;59036;50.960;0.314;2022-07-06T13:04:58;49;46;
64627;PMS5003;59036;50.960;0.314;2022-07-06T13:07:26;40;40;
64627;PMS5003;59036;50.960;0.314;2022-07-06T13:09:55;40;39;
64627;PMS5003;59036;50.960;0.314;2022-07-06T13:12:23;36;35;
64627;PMS5003;59036;50.960;0.314;2022-07-06T13:14:51;16;16;
64627;PMS5003;59036;50.960;0.314;2022-07-06T13:17:18;8;7;
64627;PMS5003;59036;50.960;0.314;2022-07-06T13:19:46;3;3;
64627;PMS5003;59036;50.960;0.314;2022-07-06T13:22:14;4;4;
64627;PMS5003;59036;50.960;0.314;2022-07-06T13:24:42;2;2;
64627;PMS5003;59036;50.960;0.314;2022-07-06T13:27:09;7;7;
64627;PMS5003;59036;50.960;0.314;2022-07-06T13:29:38;3;3;
64627;PMS5003;59036;50.960;0.314;2022-07-06T13:32:06;5;5;
64627;PMS5003;59036;50.960;0.314;2022-07-06T13:34:34;6;4;
64627;PMS5003;59036;50.960;0.314;2022-07-06T13:37:01;5;4;
64627;PMS5003;59036;50.960;0.314;2022-07-06T13:39:29;3;3;
64627;PMS5003;59036;50.960;0.314;2022-07-06T13:41:56;5;5;
64627;PMS5003;59036;50.960;0.314;2022-07-06T13:44:24;3;3;
64627;PMS5003;59036;50.960;0.314;2022-07-06T13:46:51;5;5;
64627;PMS5003;59036;50.960;0.314;2022-07-06T13:49:20;5;5;
64627;PMS5003;59036;50.960;0.314;2022-07-06T13:51:47;4;4;
64627;PMS5003;59036;50.960;0.314;2022-07-06T13:54:14;6;6;
64627;PMS5003;59036;50.960;0.314;2022-07-06T13:56:41;4;4;
64627;PMS5003;59036;50.960;0.314;2022-07-06T13:59:08;6;6;
64627;PMS5003;59036;50.960;0.314;2022-07-06T14:01:35;2;2;
64627;PMS5003;59036;50.960;0.314;2022-07-06T14:04:03;4;4;
64627;PMS5003;59036;50.960;0.314;2022-07-06T14:06:30;3;3;
64627;PMS5003;59036;50.960;0.314;2022-07-06T14:08:58;6;6;
64627;PMS5003;59036;50.960;0.314;2022-07-06T14:11:27;5;5;
64627;PMS5003;59036;50.960;0.314;2022-07-06T14:13:54;9;9;
64627;PMS5003;59036;50.960;0.314;2022-07-06T14:16:22;8;7;
64627;PMS5003;59036;50.960;0.314;2022-07-06T14:18:50;5;5;
64627;PMS5003;59036;50.960;0.314;2022-07-06T14:21:17;4;4;
64627;PMS5003;59036;50.960;0.314;2022-07-06T14:23:44;5;5;
64627;PMS5003;59036;50.960;0.314;2022-07-06T14:26:10;5;5;
64627;PMS5003;59036;50.960;0.314;2022-07-06T14:28:38;6;6;
64627;PMS5003;59036;50.960;0.314;2022-07-06T14:31:05;6;5;
64627;PMS5003;59036;50.960;0.314;2022-07-06T14:33:33;9;9;
64627;PMS5003;59036;50.960;0.314;2022-07-06T14:36:00;7;7;
64627;PMS5003;59036;50.960;0.314;2022-07-06T14:38:28;6;6;
64627;PMS5003;59036;50.960;0.314;2022-07-06T14:40:55;8;8;
64627;PMS5003;59036;50.960;0.314;2022-07-06T14:43:23;6;6;
64627;PMS5003;59036;50.960;0.314;2022-07-06T14:45:50;5;5;
64627;PMS5003;59036;50.960;0.314;2022-07-06T14:48:18;6;6;
64627;PMS5003;59036;50.960;0.314;2022-07-06T14:50:46;4;4;
64627;PMS5003;59036;50.960;0.314;2022-07-06T14:53:13;2;2;
64627;PMS5003;59036;50.960;0.314;2022-07-06T14:55:40;3;3;
64627;PMS5003;59036;50.960;0.314;2022-07-06T14:58:07;3;3;
64627;PMS5003;59036;50.960;0.314;2022-07-06T15:00:34;2;2;
64627;PMS5003;59036;50.960;0.314;2022-07-06T15:03:01;4;4;
64627;PMS5003;59036;50.960;0.314;2022-07-06T15:05:29;4;4;
64627;PMS5003;59036;50.960;0.314;2022-07-06T15:07:56;4;4;
64627;PMS5003;59036;50.960;0.314;2022-07-06T15:10:24;5;5;
64627;PMS5003;59036;50.960;0.314;2022-07-06T15:12:51;3;3;
64627;PMS5003;59036;50.960;0.314;2022-07-06T15:15:18;3;3;
64627;PMS5003;59036;50.960;0.314;2022-07-06T15:17:46;4;4;
64627;PMS5003;59036;50.960;0.314;2022-07-06T15:20:13;4;4;
64627;PMS5003;59036;50.960;0.314;2022-07-06T15:22:40;4;3;
64627;PMS5003;59036;50.960;0.314;2022-07-06T15:25:08;3;3;
64627;PMS5003;59036;50.960;0.314;2022-07-06T15:27:36;4;4;
64627;PMS5003;59036;50.960;0.314;2022-07-06T15:30:04;4;4;
64627;PMS5003;59036;50.960;0.314;2022-07-06T15:32:32;4;4;
64627;PMS5003;59036;50.960;0.314;2022-07-06T15:35:00;2;2;
64627;PMS5003;59036;50.960;0.314;2022-07-06T15:37:27;4;3;
64627;PMS5003;59036;50.960;0.314;2022-07-06T15:39:54;4;4;
64627;PMS5003;59036;50.960;0.314;2022-07-06T15:42:21;3;3;
64627;PMS5003;59036;50.960;0.314;2022-07-06T15:44:47;5;5;
64627;PMS5003;59036;50.960;0.314;2022-07-06T15:47:15;5;4;
64627;PMS5003;59036;50.960;0.314;2022-07-06T15:49:42;4;4;
64627;PMS5003;59036;50.960;0.314;2022-07-06T15:52:10;3;3;
64627;PMS5003;59036;50.960;0.314;2022-07-06T15:54:38;4;4;
64627;PMS5003;59036;50.960;0.314;2022-07-06T15:57:05;3;3;
64627;PMS5003;59036;50.960;0.314;2022-07-06T15:59:32;3;3;
64627;PMS5003;59036;50.960;0.314;2022-07-06T16:01:59;3;3;
64627;PMS5003;59036;50.960;0.314;2022-07-06T16:04:26;4;4;
64627;PMS5003;59036;50.960;0.314;2022-07-06T16:06:53;4;4;
64627;PMS5003;59036;50.960;0.314;2022-07-06T16:09:20;4;4;
64627;PMS5003;59036;50.960;0.314;2022-07-06T16:11:47;5;4;
64627;PMS5003;59036;50.960;0.314;2022-07-06T16:14:14;5;5;
64627;PMS5003;59036;50.960;0.314;2022-07-06T16:16:41;4;4;
64627;PMS5003;59036;50.960;0.314;2022-07-06T16:19:08;4;4;
64627;PMS5003;59036;50.960;0.314;2022-07-06T16:21:35;6;6;
64627;PMS5003;59036;50.960;0.314;2022-07-06T16:24:03;6;6;
64627;PMS5003;59036;50.960;0.314;2022-07-06T16:26:31;6;6;
64627;PMS5003;59036;50.960;0.314;2022-07-06T16:28:59;5;4;
64627;PMS5003;59036;50.960;0.314;2022-07-06T16:31:26;6;5;
64627;PMS5003;59036;50.960;0.314;2022-07-06T16:33:53;6;6;
64627;PMS5003;59036;50.960;0.314;2022-07-06T16:36:20;5;5;
64627;PMS5003;59036;50.960;0.314;2022-07-06T16:38:47;5;5;
64627;PMS5003;59036;50.960;0.314;2022-07-06T16:41:14;6;6;
64627;PMS5003;59036;50.960;0.314;2022-07-06T16:43:42;4;4;
64627;PMS5003;59036;50.960;0.314;2022-07-06T16:46:09;5;5;
64627;PMS5003;59036;50.960;0.314;2022-07-06T16:48:36;5;5;
64627;PMS5003;59036;50.960;0.314;2022-07-06T16:51:04;4;3;
64627;PMS5003;59036;50.960;0.314;2022-07-06T16:53:32;3;3;